Time;durP1;ratioP1;P1;durP2;ratioP2;P2;SDS_P1;SDS_P2;PMS_P1;PMS_P2;Temp;Humidity;BMP_temperature;BMP_pressure;BME280_temperature;BME280_humidity;BME280_pressure;Samples;Min_cycle;Max_cycle;Signal;HPM_P1;HPM_P2
2021/01/11 00:00:58;;;;;;;15.90;12.97;;;-0.80;82.40;;;;;;5000514;28;20240;-89
2021/01/11 00:03:24;;;;;;;14.87;12.17;;;-1.00;82.90;;;;;;5017979;28;20188;-89
2021/01/11 00:05:50;;;;;;;15.27;12.77;;;-1.10;82.80;;;;;;5018495;28;20245;-90
2021/01/11 00:08:15;;;;;;;15.20;13.13;;;-1.00;84.40;;;;;;5000256;28;20272;-88
2021/01/11 00:10:41;;;;;;;18.03;13.73;;;-1.00;85.00;;;;;;5018522;28;20178;-89
2021/01/11 00:13:07;;;;;;;16.90;12.37;;;-1.00;84.40;;;;;;5018492;28;20209;-90
2021/01/11 00:15:32;;;;;;;14.43;12.90;;;-0.90;85.00;;;;;;5000886;28;20186;-91
2021/01/11 00:17:58;;;;;;;17.37;13.10;;;-0.90;84.50;;;;;;5016975;28;20258;-89
2021/01/11 00:20:24;;;;;;;16.17;12.73;;;-0.80;84.30;;;;;;5018207;28;20186;-89
2021/01/11 00:22:49;;;;;;;15.53;13.00;;;-0.90;84.20;;;;;;4999600;28;20190;-89
2021/01/11 00:25:15;;;;;;;13.37;11.90;;;-0.80;84.10;;;;;;5018759;28;20204;-89
2021/01/11 00:27:41;;;;;;;14.70;12.10;;;-0.80;84.20;;;;;;5019707;28;20239;-89
2021/01/11 00:30:08;;;;;;;17.17;13.67;;;-0.70;84.00;;;;;;5018005;28;20189;-89
2021/01/11 00:32:38;;;;;;;16.03;13.03;;;-0.80;82.00;;;;;;5017998;28;20312;-89
2021/01/11 00:35:05;;;;;;;15.37;12.07;;;-0.80;83.60;;;;;;5000511;28;20181;-88
2021/01/11 00:37:32;;;;;;;15.87;13.67;;;-0.70;84.40;;;;;;5018297;28;20188;-91
2021/01/11 00:39:58;;;;;;;15.20;12.30;;;-0.70;84.40;;;;;;5018612;28;20193;-88
2021/01/11 00:42:24;;;;;;;13.73;11.60;;;-0.70;83.00;;;;;;5018801;28;20196;-89
2021/01/11 00:44:49;;;;;;;16.13;13.30;;;-0.70;82.90;;;;;;5019030;28;20280;-89
2021/01/11 00:47:15;;;;;;;17.13;13.00;;;-0.60;82.60;;;;;;5001557;28;20670;-89
2021/01/11 00:49:41;;;;;;;13.90;12.50;;;-0.70;82.30;;;;;;5018631;28;20225;-88
2021/01/11 00:52:07;;;;;;;15.27;12.90;;;-0.70;81.10;;;;;;5000472;28;20226;-88
2021/01/11 00:54:32;;;;;;;17.77;13.53;;;-0.70;81.20;;;;;;5000366;28;20189;-89
2021/01/11 00:56:58;;;;;;;14.13;12.63;;;-0.70;81.20;;;;;;5018159;28;20237;-88
2021/01/11 00:59:25;;;;;;;15.53;12.20;;;-0.80;80.60;;;;;;5000629;28;20202;-88
2021/01/11 01:01:52;;;;;;;15.07;12.80;;;-0.90;81.10;;;;;;5000888;28;20190;-89
2021/01/11 01:04:18;;;;;;;16.87;11.90;;;-0.90;81.70;;;;;;5018088;28;20182;-90
2021/01/11 01:06:44;;;;;;;15.60;12.30;;;-0.90;81.80;;;;;;5017445;28;20181;-89
2021/01/11 01:09:10;;;;;;;18.33;13.47;;;-1.00;81.40;;;;;;5017908;28;20197;-90
2021/01/11 01:11:40;;;;;;;16.43;12.43;;;-1.10;81.80;;;;;;5017844;28;20201;-89
2021/01/11 01:14:06;;;;;;;13.30;11.90;;;-1.10;81.70;;;;;;4998460;28;20228;-90
2021/01/11 01:16:32;;;;;;;15.93;12.83;;;-1.10;82.50;;;;;;4998707;28;20253;-89
2021/01/11 01:18:58;;;;;;;17.70;12.97;;;-1.00;83.00;;;;;;4998039;28;20717;-89
2021/01/11 01:21:24;;;;;;;15.23;12.40;;;-1.10;82.70;;;;;;5009437;28;20209;-89
2021/01/11 01:23:50;;;;;;;15.90;13.13;;;-1.00;82.90;;;;;;5017614;28;20189;-89
2021/01/11 01:26:15;;;;;;;13.77;12.33;;;-1.00;83.00;;;;;;5017532;28;20181;-90
2021/01/11 01:28:41;;;;;;;15.40;12.33;;;-1.00;83.50;;;;;;5017439;28;20276;-90
2021/01/11 01:31:07;;;;;;;16.07;12.20;;;-0.90;82.80;;;;;;5021080;28;20190;-88
2021/01/11 01:33:32;;;;;;;13.83;12.23;;;-1.10;80.80;;;;;;5026625;28;20181;-88
2021/01/11 01:35:58;;;;;;;14.43;12.03;;;-1.10;80.20;;;;;;5007366;28;20221;-89
2021/01/11 01:38:24;;;;;;;15.57;12.43;;;-1.20;81.70;;;;;;5021451;28;20708;-88
2021/01/11 01:40:50;;;;;;;16.00;11.97;;;-1.30;82.00;;;;;;5012480;28;20186;-87
2021/01/11 01:43:15;;;;;;;15.37;12.77;;;-1.30;81.90;;;;;;5014817;28;20198;-88
2021/01/11 01:45:41;;;;;;;14.70;12.47;;;-1.30;82.20;;;;;;5023530;28;20182;-89
2021/01/11 01:48:09;;;;;;;14.33;12.27;;;-1.30;83.00;;;;;;5021191;28;20209;-90
2021/01/11 01:50:40;;;;;;;18.07;13.23;;;-1.20;83.20;;;;;;5001374;28;20194;-88
2021/01/11 01:53:05;;;;;;;16.10;12.13;;;-1.20;83.50;;;;;;5001454;28;20209;-91
2021/01/11 01:55:32;;;;;;;14.73;12.80;;;-1.20;83.40;;;;;;5001906;28;20186;-89
2021/01/11 01:58:01;;;;;;;15.33;12.33;;;-1.10;82.50;;;;;;5000966;28;20296;-88
2021/01/11 02:00:27;;;;;;;15.90;12.67;;;-1.20;81.80;;;;;;5001422;28;20182;-89
2021/01/11 02:02:52;;;;;;;16.13;11.83;;;-1.30;81.90;;;;;;5007194;28;20186;-90
2021/01/11 02:05:18;;;;;;;17.37;13.07;;;-1.40;81.30;;;;;;5020923;28;20181;-89
2021/01/11 02:07:59;;;;;;;13.90;12.30;;;-1.50;80.90;;;;;;5021428;28;20197;-89
2021/01/11 02:10:50;;;;;;;15.87;13.17;;;-1.70;82.60;;;;;;5020638;28;20190;-89
2021/01/11 02:13:30;;;;;;;16.20;12.53;;;-1.60;83.70;;;;;;5000749;28;20244;-88
2021/01/11 02:16:17;;;;;;;16.83;12.70;;;-1.50;84.30;;;;;;5001466;28;20170;-88
2021/01/11 02:19:05;;;;;;;14.57;12.30;;;-1.50;83.50;;;;;;4985883;28;20228;-89
2021/01/11 02:21:54;;;;;;;17.20;13.13;;;-1.50;84.50;;;;;;5003287;28;20182;-89
2021/01/11 02:24:39;;;;;;;17.27;13.43;;;-1.40;83.90;;;;;;5003068;28;20277;-88
2021/01/11 02:27:28;;;;;;;14.97;13.37;;;-1.50;83.20;;;;;;5001617;28;20182;-89
2021/01/11 02:30:12;;;;;;;16.57;13.23;;;-1.50;82.90;;;;;;5007023;28;20178;-88
2021/01/11 02:32:47;;;;;;;15.53;12.93;;;-1.60;83.20;;;;;;5020996;28;20236;-89
2021/01/11 02:35:14;;;;;;;13.73;12.17;;;-1.50;83.30;;;;;;5021581;28;20170;-89
2021/01/11 02:37:41;;;;;;;17.77;12.83;;;-1.50;83.90;;;;;;5020928;28;20711;-89
2021/01/11 02:40:09;;;;;;;15.40;12.30;;;-1.50;82.80;;;;;;5021335;28;20240;-89
2021/01/11 02:42:35;;;;;;;16.27;12.83;;;-1.50;82.10;;;;;;5021020;28;20186;-90
2021/01/11 02:45:02;;;;;;;16.87;13.67;;;-1.60;82.60;;;;;;5020880;28;20181;-89
2021/01/11 02:47:55;;;;;;;16.93;13.27;;;-1.60;82.30;;;;;;5020874;28;20181;-88
2021/01/11 02:50:24;;;;;;;15.97;12.93;;;-1.70;82.30;;;;;;5021855;28;20174;-89
2021/01/11 02:53:04;;;;;;;17.53;13.20;;;-1.70;83.20;;;;;;5022237;28;20209;-88
2021/01/11 02:55:44;;;;;;;16.93;13.90;;;-1.80;82.90;;;;;;5023214;28;20212;-90
2021/01/11 02:58:28;;;;;;;14.50;12.17;;;-1.70;83.90;;;;;;5026000;28;20694;-88
2021/01/11 03:00:56;;;;;;;14.80;12.67;;;-1.70;83.60;;;;;;5003955;28;20521;-88
2021/01/11 03:03:23;;;;;;;17.33;12.73;;;-1.70;82.50;;;;;;5021095;28;20239;-89
2021/01/11 03:05:50;;;;;;;17.37;12.77;;;-1.80;83.20;;;;;;5021124;28;20189;-90
2021/01/11 03:08:22;;;;;;;18.00;12.77;;;-1.80;83.80;;;;;;5020847;28;20209;-90
2021/01/11 03:10:47;;;;;;;16.90;13.37;;;-1.70;84.20;;;;;;5020878;28;20181;-89
2021/01/11 03:13:13;;;;;;;17.37;12.77;;;-1.60;81.70;;;;;;5020790;28;20221;-90
2021/01/11 03:15:38;;;;;;;14.60;12.53;;;-1.70;82.80;;;;;;5021122;28;20277;-89
2021/01/11 03:18:04;;;;;;;15.33;12.77;;;-1.60;83.40;;;;;;5002223;28;20233;-90
2021/01/11 03:20:30;;;;;;;15.73;12.20;;;-1.70;80.90;;;;;;5020260;28;20544;-90
2021/01/11 03:22:55;;;;;;;17.20;13.90;;;-1.80;82.60;;;;;;5002545;28;20579;-90
2021/01/11 03:25:21;;;;;;;15.67;12.70;;;-1.80;81.80;;;;;;5020026;28;20201;-90
2021/01/11 03:27:47;;;;;;;14.57;11.67;;;-1.90;82.70;;;;;;5019787;28;20217;-89
2021/01/11 03:30:13;;;;;;;15.77;12.77;;;-1.90;83.60;;;;;;5020044;28;20185;-89
2021/01/11 03:32:39;;;;;;;15.20;12.07;;;-1.80;83.00;;;;;;5019428;28;20292;-89
2021/01/11 03:35:05;;;;;;;15.90;11.93;;;-1.70;83.70;;;;;;5020113;28;20208;-90
2021/01/11 03:37:32;;;;;;;16.27;12.43;;;-1.70;83.40;;;;;;5020132;28;20205;-90
2021/01/11 03:39:57;;;;;;;15.23;13.00;;;-1.60;82.70;;;;;;5024167;28;20173;-89
2021/01/11 03:42:23;;;;;;;15.60;12.53;;;-1.50;82.50;;;;;;5020359;28;20257;-89
2021/01/11 03:44:49;;;;;;;16.53;12.73;;;-1.50;79.70;;;;;;5020674;28;20186;-90
2021/01/11 03:47:15;;;;;;;14.30;12.17;;;-1.70;78.40;;;;;;5003485;28;20195;-89
2021/01/11 03:49:40;;;;;;;14.80;12.53;;;-1.80;80.20;;;;;;5020289;28;20688;-88
2021/01/11 03:52:06;;;;;;;15.53;11.97;;;-1.80;82.10;;;;;;5020506;28;20221;-88
2021/01/11 03:54:32;;;;;;;16.23;11.80;;;-1.80;82.20;;;;;;5003451;28;20196;-89
2021/01/11 03:56:58;;;;;;;15.47;11.97;;;-1.80;82.10;;;;;;5002793;28;20217;-89
2021/01/11 03:59:24;;;;;;;16.60;12.73;;;-1.90;82.10;;;;;;5019627;28;20212;-88
2021/01/11 04:01:49;;;;;;;15.27;12.17;;;-1.80;82.40;;;;;;5002422;28;20193;-91
2021/01/11 04:04:15;;;;;;;14.63;11.93;;;-1.80;82.90;;;;;;5019763;28;20529;-91
2021/01/11 04:06:41;;;;;;;15.30;12.57;;;-1.80;82.80;;;;;;5019743;28;20324;-87
2021/01/11 04:09:06;;;;;;;14.27;12.07;;;-1.70;82.30;;;;;;5019074;28;20216;-90
2021/01/11 04:11:32;;;;;;;15.30;12.40;;;-1.60;82.30;;;;;;5018821;28;20217;-90
2021/01/11 04:13:58;;;;;;;15.33;11.93;;;-1.70;81.20;;;;;;5018487;28;20185;-90
2021/01/11 04:16:23;;;;;;;14.73;11.83;;;-1.60;81.00;;;;;;5001901;28;20288;-90
2021/01/11 04:18:49;;;;;;;14.47;12.03;;;-1.60;81.40;;;;;;5017906;28;20572;-90
2021/01/11 04:21:15;;;;;;;16.97;11.83;;;-1.60;81.00;;;;;;5025874;28;20186;-89
2021/01/11 04:23:41;;;;;;;16.13;12.53;;;-1.60;81.40;;;;;;5009682;28;20270;-90
2021/01/11 04:26:10;;;;;;;13.20;11.73;;;-1.50;82.00;;;;;;5018603;28;20198;-91
2021/01/11 04:28:36;;;;;;;15.20;12.00;;;-1.50;80.60;;;;;;5019391;28;20763;-89
2021/01/11 04:31:02;;;;;;;16.13;12.07;;;-1.50;80.60;;;;;;5015005;28;20181;-89
2021/01/11 04:33:28;;;;;;;13.17;11.53;;;-1.50;80.30;;;;;;5031254;28;20265;-89
2021/01/11 04:35:54;;;;;;;16.63;12.07;;;-1.50;80.10;;;;;;5018502;28;20213;-90
2021/01/11 04:38:19;;;;;;;15.10;13.03;;;-1.60;79.10;;;;;;5018510;28;20611;-89
2021/01/11 04:40:45;;;;;;;13.47;11.50;;;-1.60;79.50;;;;;;5000139;28;20189;-89
2021/01/11 04:43:15;;;;;;;19.23;12.67;;;-1.60;79.20;;;;;;5018598;28;20186;-90
2021/01/11 04:45:42;;;;;;;17.23;11.87;;;-1.60;77.00;;;;;;5019227;28;20166;-89
2021/01/11 04:48:08;;;;;;;14.40;11.30;;;-1.80;77.90;;;;;;5018870;28;20197;-89
2021/01/11 04:50:34;;;;;;;15.20;12.77;;;-1.80;78.80;;;;;;5000967;28;20194;-89
2021/01/11 04:53:06;;;;;;;14.70;11.97;;;-2.00;77.30;;;;;;5017922;28;20237;-89
2021/01/11 04:55:37;;;;;;;14.80;11.90;;;-2.30;78.50;;;;;;5019170;28;20154;-89
2021/01/11 04:58:08;;;;;;;14.20;11.70;;;-2.30;81.00;;;;;;5018754;28;20197;-90
2021/01/11 05:00:35;;;;;;;14.60;11.47;;;-2.20;82.30;;;;;;5019746;28;20176;-89
2021/01/11 05:03:05;;;;;;;15.03;12.27;;;-2.10;81.70;;;;;;5019814;28;20259;-88
2021/01/11 05:05:33;;;;;;;13.93;11.53;;;-2.00;80.80;;;;;;5018785;28;20208;-90
2021/01/11 05:07:59;;;;;;;15.97;13.03;;;-2.00;81.40;;;;;;5001391;28;20210;-89
2021/01/11 05:10:26;;;;;;;14.43;11.87;;;-2.00;78.60;;;;;;5018190;28;20177;-90
2021/01/11 05:13:05;;;;;;;13.13;11.37;;;-2.30;77.50;;;;;;5018768;28;20213;-90
2021/01/11 05:15:35;;;;;;;13.33;11.33;;;-2.40;79.40;;;;;;5004074;28;20193;-91
2021/01/11 05:18:01;;;;;;;14.83;11.73;;;-2.30;80.70;;;;;;5019513;28;20688;-89
2021/01/11 05:20:31;;;;;;;16.03;12.13;;;-2.20;80.50;;;;;;5019309;28;20181;-89
2021/01/11 05:23:12;;;;;;;14.43;11.33;;;-2.20;80.70;;;;;;5001507;28;20193;-90
2021/01/11 05:25:39;;;;;;;17.53;12.47;;;-2.10;79.80;;;;;;5019234;28;20161;-89
2021/01/11 05:28:23;;;;;;;12.70;10.67;;;-2.10;78.50;;;;;;5019234;28;20201;-90
2021/01/11 05:30:50;;;;;;;14.90;11.60;;;-2.10;79.80;;;;;;5019422;28;20192;-89
2021/01/11 05:33:24;;;;;;;14.90;12.27;;;-2.00;80.10;;;;;;5018955;28;20300;-90
2021/01/11 05:36:13;;;;;;;13.77;11.23;;;-2.00;80.10;;;;;;5020110;28;20158;-89
2021/01/11 05:38:46;;;;;;;14.67;11.63;;;-2.00;80.20;;;;;;5019194;28;20209;-89
2021/01/11 05:41:23;;;;;;;13.40;11.67;;;-2.00;80.20;;;;;;5001945;28;20236;-90
2021/01/11 05:44:08;;;;;;;16.47;12.90;;;-2.00;78.30;;;;;;5019896;28;20174;-89
2021/01/11 05:46:33;;;;;;;15.60;12.67;;;-2.20;79.70;;;;;;5019530;28;20629;-89
2021/01/11 05:49:05;;;;;;;17.07;13.00;;;-2.20;80.30;;;;;;5019322;28;20208;-90
2021/01/11 05:51:33;;;;;;;16.03;13.77;;;-2.10;81.10;;;;;;4986106;28;20229;-90
2021/01/11 05:53:59;;;;;;;17.93;14.13;;;-2.10;81.30;;;;;;5019467;28;20182;-90
2021/01/11 05:56:25;;;;;;;18.17;15.00;;;-2.10;81.40;;;;;;5017880;28;20178;-89
2021/01/11 05:59:07;;;;;;;19.17;13.80;;;-2.00;79.60;;;;;;5020296;28;20545;-90
2021/01/11 06:01:35;;;;;;;18.20;13.97;;;-2.40;76.50;;;;;;5023106;28;20201;-90
2021/01/11 06:04:01;;;;;;;17.57;13.60;;;-2.70;78.70;;;;;;5023536;28;20189;-90
2021/01/11 06:06:27;;;;;;;18.87;14.50;;;-2.70;82.20;;;;;;5023235;28;20215;-89
2021/01/11 06:08:53;;;;;;;19.37;15.23;;;-2.60;81.80;;;;;;5039664;28;20288;-89
2021/01/11 06:11:27;;;;;;;17.27;14.13;;;-2.60;81.80;;;;;;5022793;28;20177;-89
2021/01/11 06:13:56;;;;;;;24.67;14.57;;;-2.50;81.40;;;;;;5022008;28;20200;-90
2021/01/11 06:16:24;;;;;;;14.73;12.57;;;-2.50;79.20;;;;;;5021155;28;20178;-90
2021/01/11 06:18:51;;;;;;;15.50;12.67;;;-2.40;80.70;;;;;;5021327;28;20224;-90
2021/01/11 06:21:19;;;;;;;19.83;13.37;;;-2.30;80.30;;;;;;5022603;28;20178;-89
2021/01/11 06:23:45;;;;;;;20.60;13.63;;;-2.30;79.80;;;;;;5007423;28;20182;-89
2021/01/11 06:26:26;;;;;;;20.53;14.20;;;-2.20;79.40;;;;;;5007573;28;20246;-90
2021/01/11 06:28:53;;;;;;;17.53;12.63;;;-2.20;79.50;;;;;;5025156;28;20220;-90
2021/01/11 06:31:25;;;;;;;18.70;14.10;;;-2.20;79.20;;;;;;5024171;28;20545;-90
2021/01/11 06:33:50;;;;;;;22.87;15.03;;;-2.20;78.50;;;;;;5024511;28;20190;-90
2021/01/11 06:36:30;;;;;;;17.53;13.80;;;-2.20;78.90;;;;;;5032922;28;20264;-89
2021/01/11 06:38:56;;;;;;;18.80;14.47;;;-2.20;79.10;;;;;;5025043;28;20209;-91
2021/01/11 06:41:27;;;;;;;20.63;14.03;;;-2.10;79.20;;;;;;5025234;28;20178;-89
2021/01/11 06:44:01;;;;;;;18.23;13.60;;;-2.10;79.70;;;;;;5024876;28;20196;-90
2021/01/11 06:46:30;;;;;;;18.90;12.63;;;-2.20;79.10;;;;;;5001956;28;20185;-90
2021/01/11 06:49:01;;;;;;;15.60;12.27;;;-2.20;79.10;;;;;;5025118;28;20194;-90
2021/01/11 06:51:39;;;;;;;15.60;12.03;;;-2.20;77.80;;;;;;5024355;28;20660;-89
2021/01/11 06:54:16;;;;;;;30.40;18.13;;;-2.40;75.80;;;;;;5024743;28;20591;-90
2021/01/11 06:56:43;;;;;;;20.00;13.10;;;-2.70;77.20;;;;;;5025152;28;20165;-89
2021/01/11 06:59:16;;;;;;;16.73;13.43;;;-2.70;78.50;;;;;;5007498;28;20293;-90
2021/01/11 07:01:43;;;;;;;19.10;14.53;;;-2.70;80.50;;;;;;5008434;28;20163;-90
2021/01/11 07:04:10;;;;;;;16.17;13.17;;;-2.60;79.30;;;;;;5025813;28;20208;-90
2021/01/11 07:06:36;;;;;;;15.67;12.83;;;-2.50;79.60;;;;;;5026222;28;20182;-91
2021/01/11 07:09:13;;;;;;;18.20;14.20;;;-2.50;79.30;;;;;;5026767;28;20253;-90
2021/01/11 07:11:41;;;;;;;17.17;13.83;;;-2.50;78.70;;;;;;5005873;28;20205;-89
2021/01/11 07:14:08;;;;;;;17.83;14.13;;;-2.50;78.90;;;;;;4988105;28;20184;-90
2021/01/11 07:16:38;;;;;;;16.97;13.77;;;-2.40;79.30;;;;;;5004565;28;20170;-89
2021/01/11 07:19:04;;;;;;;18.43;13.70;;;-2.40;78.00;;;;;;5010587;28;20205;-90
2021/01/11 07:21:29;;;;;;;17.93;14.27;;;-2.50;78.70;;;;;;5024790;28;20177;-90
2021/01/11 07:23:56;;;;;;;17.27;13.30;;;-2.50;78.40;;;;;;5024988;28;20174;-90
2021/01/11 07:26:24;;;;;;;16.00;13.23;;;-2.50;78.10;;;;;;5025368;28;20181;-89
2021/01/11 07:28:56;;;;;;;19.20;13.57;;;-2.50;78.20;;;;;;5026099;28;20237;-90
2021/01/11 07:31:24;;;;;;;16.63;12.57;;;-2.60;76.90;;;;;;5024721;28;20192;-90
2021/01/11 07:33:55;;;;;;;15.30;12.20;;;-2.80;76.80;;;;;;5023900;28;20185;-90
2021/01/11 07:36:21;;;;;;;16.43;12.67;;;-2.90;78.60;;;;;;5028980;28;20190;-91
2021/01/11 07:38:47;;;;;;;15.93;11.73;;;-2.90;80.70;;;;;;5016094;28;20686;-90
2021/01/11 07:41:26;;;;;;;16.37;12.73;;;-2.80;81.00;;;;;;5021491;28;20177;-90
2021/01/11 07:44:09;;;;;;;18.00;12.40;;;-2.70;80.50;;;;;;5022019;28;20184;-90
2021/01/11 07:46:34;;;;;;;16.77;12.20;;;-2.70;80.50;;;;;;5022425;28;20185;-90
2021/01/11 07:49:11;;;;;;;15.40;12.27;;;-2.50;80.60;;;;;;5021348;28;20217;-90
2021/01/11 07:51:37;;;;;;;14.77;12.20;;;-2.50;80.10;;;;;;5022167;28;20248;-90
2021/01/11 07:54:07;;;;;;;14.43;12.57;;;-2.50;80.00;;;;;;5020819;28;20189;-89
2021/01/11 07:56:33;;;;;;;17.13;13.20;;;-2.50;80.30;;;;;;5020702;28;20210;-90
2021/01/11 07:59:03;;;;;;;16.30;14.53;;;-2.60;79.00;;;;;;5020486;28;20225;-91
2021/01/11 08:01:29;;;;;;;19.17;15.63;;;-2.70;80.00;;;;;;5019996;28;20255;-90
2021/01/11 08:03:56;;;;;;;22.80;16.20;;;-2.60;80.00;;;;;;5019869;28;20190;-91
2021/01/11 08:06:22;;;;;;;24.37;18.23;;;-2.60;80.70;;;;;;5019903;28;20192;-90
2021/01/11 08:08:51;;;;;;;21.10;15.13;;;-2.70;80.50;;;;;;5018956;28;20237;-90
2021/01/11 08:11:17;;;;;;;21.07;17.07;;;-2.60;81.80;;;;;;5022465;28;20245;-90
2021/01/11 08:13:43;;;;;;;20.87;15.73;;;-2.50;80.00;;;;;;5040772;28;20208;-91
2021/01/11 08:16:15;;;;;;;19.57;14.73;;;-2.50;79.90;;;;;;5037712;28;20185;-90
2021/01/11 08:18:42;;;;;;;21.70;15.17;;;-2.30;81.00;;;;;;5039369;28;20271;-90
2021/01/11 08:21:10;;;;;;;20.00;15.03;;;-2.20;80.60;;;;;;5021172;28;20186;-90
2021/01/11 08:23:36;;;;;;;17.03;13.97;;;-2.20;80.30;;;;;;5021314;28;20189;-91
2021/01/11 08:26:06;;;;;;;19.90;15.03;;;-2.10;79.90;;;;;;5020621;28;20208;-90
2021/01/11 08:28:32;;;;;;;19.77;15.73;;;-2.10;80.00;;;;;;5021212;28;20564;-90
2021/01/11 08:31:02;;;;;;;16.93;14.17;;;-2.10;79.50;;;;;;5018575;28;20272;-90
2021/01/11 08:33:30;;;;;;;18.87;14.93;;;-2.00;80.50;;;;;;5019862;28;20301;-90
2021/01/11 08:36:16;;;;;;;15.20;13.23;;;-2.00;80.70;;;;;;5021511;28;20197;-91
2021/01/11 08:39:08;;;;;;;20.10;14.13;;;-2.00;79.70;;;;;;5019986;28;20213;-90
2021/01/11 08:41:37;;;;;;;17.50;14.50;;;-2.10;79.90;;;;;;5002107;28;20189;-91
2021/01/11 08:44:04;;;;;;;16.80;13.63;;;-2.30;80.30;;;;;;5019833;28;20727;-89
2021/01/11 08:46:55;;;;;;;15.43;13.10;;;-2.30;81.50;;;;;;5020960;28;20189;-89
2021/01/11 08:49:21;;;;;;;17.30;14.73;;;-2.10;80.80;;;;;;5020182;28;20276;-90
2021/01/11 08:51:48;;;;;;;19.87;14.87;;;-2.10;80.40;;;;;;5020576;28;20252;-90
2021/01/11 08:54:30;;;;;;;18.80;14.00;;;-2.10;80.70;;;;;;5021478;28;20174;-91
2021/01/11 08:56:58;;;;;;;17.77;14.00;;;-1.90;80.80;;;;;;5020884;28;20181;-89
2021/01/11 08:59:25;;;;;;;17.93;13.60;;;-1.90;80.50;;;;;;5020574;28;20687;-89
2021/01/11 09:01:51;;;;;;;17.53;14.10;;;-1.90;79.10;;;;;;5021046;28;20190;-90
2021/01/11 09:04:34;;;;;;;18.57;15.00;;;-2.00;80.10;;;;;;5020583;28;20271;-91
2021/01/11 09:07:01;;;;;;;19.23;14.30;;;-2.30;80.10;;;;;;5014164;28;20212;-90
2021/01/11 09:09:28;;;;;;;17.07;13.63;;;-2.50;82.10;;;;;;5001714;28;20217;-90
2021/01/11 09:12:08;;;;;;;16.93;13.33;;;-2.60;81.90;;;;;;5019806;28;20277;-90
2021/01/11 09:14:36;;;;;;;16.93;12.97;;;-2.70;83.90;;;;;;5003500;28;20185;-89
2021/01/11 09:17:04;;;;;;;14.33;11.53;;;-2.70;83.40;;;;;;5020396;28;20189;-90
2021/01/11 09:19:34;;;;;;;17.10;11.80;;;-2.70;85.10;;;;;;5011833;28;20244;-88
2021/01/11 09:22:05;;;;;;;15.40;12.57;;;-2.70;85.00;;;;;;5018254;28;20276;-89
2021/01/11 09:24:32;;;;;;;14.63;11.57;;;-2.70;84.90;;;;;;5003715;28;20195;-90
2021/01/11 09:26:58;;;;;;;16.50;12.87;;;-2.50;84.30;;;;;;5039432;28;20595;-91
2021/01/11 09:29:25;;;;;;;15.90;11.57;;;-2.60;85.30;;;;;;5033542;28;20217;-90
2021/01/11 09:31:51;;;;;;;15.07;11.77;;;-2.60;85.60;;;;;;5013582;28;20213;-90
2021/01/11 09:34:18;;;;;;;15.87;12.30;;;-2.60;86.90;;;;;;5024010;28;20570;-91
2021/01/11 09:36:45;;;;;;;14.00;11.50;;;-2.60;86.00;;;;;;5038647;28;20184;-90
2021/01/11 09:39:12;;;;;;;18.07;11.53;;;-2.50;86.00;;;;;;5037786;28;20232;-90
2021/01/11 09:41:43;;;;;;;16.47;12.37;;;-2.40;86.20;;;;;;5004272;28;20186;-90
2021/01/11 09:44:09;;;;;;;14.60;12.13;;;-2.40;85.60;;;;;;5039031;28;20182;-90
2021/01/11 09:46:55;;;;;;;15.67;11.60;;;-2.40;85.20;;;;;;5004275;28;20555;-90
2021/01/11 09:49:22;;;;;;;15.13;11.57;;;-2.30;86.40;;;;;;5039778;28;20263;-90
2021/01/11 09:51:48;;;;;;;16.23;12.07;;;-2.20;86.50;;;;;;5043893;28;20205;-90
2021/01/11 09:54:14;;;;;;;14.73;12.03;;;-2.00;85.30;;;;;;5041343;28;20181;-91
2021/01/11 09:56:40;;;;;;;14.87;11.90;;;-2.00;85.30;;;;;;5047256;28;20185;-91
2021/01/11 09:59:06;;;;;;;12.13;10.60;;;-2.00;84.80;;;;;;5028980;28;20587;-89
2021/01/11 10:01:38;;;;;;;15.63;12.17;;;-1.90;83.60;;;;;;5033403;28;20197;-90
2021/01/11 10:04:04;;;;;;;13.77;10.90;;;-2.00;84.40;;;;;;5026672;28;20201;-91
2021/01/11 10:06:46;;;;;;;14.13;10.53;;;-2.00;85.40;;;;;;5027052;28;20178;-89
2021/01/11 10:09:13;;;;;;;16.37;11.93;;;-1.70;82.80;;;;;;5008699;28;20210;-89
2021/01/11 10:11:39;;;;;;;16.10;11.10;;;-1.70;82.70;;;;;;5027368;28;20649;-90
2021/01/11 10:14:06;;;;;;;18.57;11.67;;;-1.80;83.00;;;;;;5007059;28;20277;-89
2021/01/11 10:16:32;;;;;;;14.73;11.73;;;-1.60;83.00;;;;;;5025422;28;20196;-90
2021/01/11 10:18:58;;;;;;;13.70;10.67;;;-1.30;82.60;;;;;;5025853;28;20202;-91
2021/01/11 10:21:25;;;;;;;17.30;10.80;;;-1.40;80.60;;;;;;5025562;28;20177;-90
2021/01/11 10:23:51;;;;;;;13.97;11.07;;;-1.30;80.60;;;;;;5025736;28;20297;-90
2021/01/11 10:26:19;;;;;;;16.17;11.60;;;-1.10;80.20;;;;;;5007208;28;20189;-90
2021/01/11 10:28:45;;;;;;;12.13;10.70;;;-0.90;80.10;;;;;;5007012;28;20213;-90
2021/01/11 10:31:11;;;;;;;15.40;11.80;;;-0.70;78.50;;;;;;5024949;28;20197;-90
2021/01/11 10:33:36;;;;;;;13.57;10.87;;;-0.60;78.80;;;;;;5025866;28;20593;-90
2021/01/11 10:36:03;;;;;;;11.57;10.10;;;-0.40;77.00;;;;;;5007068;28;20181;-90
2021/01/11 10:38:28;;;;;;;16.37;10.80;;;-0.30;76.10;;;;;;5024938;28;20269;-90
2021/01/11 10:40:54;;;;;;;13.70;11.13;;;-0.30;76.10;;;;;;5007747;28;20178;-90
2021/01/11 10:43:20;;;;;;;15.00;11.13;;;-0.20;77.10;;;;;;5026598;28;20585;-90
2021/01/11 10:45:46;;;;;;;16.30;11.00;;;-0.50;77.40;;;;;;5024383;28;20197;-90
2021/01/11 10:48:11;;;;;;;15.83;10.87;;;-0.30;76.70;;;;;;5024995;28;20209;-90
2021/01/11 10:50:37;;;;;;;14.20;10.93;;;-0.10;77.80;;;;;;5023262;28;20271;-90
2021/01/11 10:53:03;;;;;;;14.87;11.67;;;0.20;74.90;;;;;;5022970;28;20284;-90
2021/01/11 10:55:28;;;;;;;12.80;10.70;;;0.20;74.40;;;;;;5004944;28;20212;-90
2021/01/11 10:57:54;;;;;;;11.93;10.60;;;0.40;75.20;;;;;;5006440;28;20762;-88
2021/01/11 11:00:21;;;;;;;15.43;11.87;;;0.50;75.80;;;;;;5023988;28;20186;-90
2021/01/11 11:02:47;;;;;;;14.07;12.40;;;0.50;74.90;;;;;;5022391;28;20194;-89
2021/01/11 11:05:13;;;;;;;16.50;12.67;;;0.50;74.80;;;;;;5022084;28;20197;-89
2021/01/11 11:07:39;;;;;;;15.13;12.73;;;0.40;74.20;;;;;;5004424;28;20185;-89
2021/01/11 11:10:06;;;;;;;17.20;12.43;;;0.40;74.60;;;;;;5004298;28;20277;-89
2021/01/11 11:12:33;;;;;;;19.33;13.57;;;0.40;75.00;;;;;;5021332;28;20204;-89
2021/01/11 11:15:00;;;;;;;15.33;13.00;;;0.30;76.50;;;;;;5008177;28;20178;-89
2021/01/11 11:17:32;;;;;;;17.60;14.50;;;0.30;76.70;;;;;;5023775;28;20238;-89
2021/01/11 11:19:59;;;;;;;18.80;14.40;;;0.20;76.20;;;;;;5022552;28;20257;-89
2021/01/11 11:22:25;;;;;;;16.87;13.97;;;0.60;74.20;;;;;;5032946;28;20180;-88
2021/01/11 11:24:51;;;;;;;18.07;14.57;;;0.80;73.70;;;;;;5042785;28;20187;-88
2021/01/11 11:27:17;;;;;;;18.57;14.23;;;0.80;74.10;;;;;;5033620;28;20603;-89
2021/01/11 11:29:43;;;;;;;18.20;15.60;;;0.70;74.10;;;;;;5022788;28;20255;-88
2021/01/11 11:32:10;;;;;;;20.77;13.93;;;0.60;74.70;;;;;;5005205;28;20306;-88
2021/01/11 11:34:36;;;;;;;19.67;15.10;;;0.80;75.20;;;;;;5022194;28;20250;-88
2021/01/11 11:37:02;;;;;;;23.30;16.27;;;1.10;74.30;;;;;;5021314;28;20640;-89
2021/01/11 11:39:27;;;;;;;17.10;14.30;;;1.40;73.00;;;;;;5021547;28;20272;-89
2021/01/11 11:42:00;;;;;;;18.27;14.00;;;1.40;72.30;;;;;;5005634;28;20560;-88
2021/01/11 11:44:27;;;;;;;16.27;13.83;;;1.20;74.00;;;;;;5004227;28;20185;-88
2021/01/11 11:46:53;;;;;;;16.13;12.77;;;1.40;74.60;;;;;;5022047;28;20174;-86
2021/01/11 11:49:20;;;;;;;16.30;14.03;;;1.80;68.40;;;;;;5021364;28;20212;-87
2021/01/11 11:51:46;;;;;;;18.87;13.43;;;1.70;70.80;;;;;;5021850;28;20209;-88
2021/01/11 11:54:12;;;;;;;16.13;13.40;;;1.60;70.90;;;;;;5020251;28;20186;-87
2021/01/11 11:56:40;;;;;;;16.37;13.80;;;1.80;69.40;;;;;;5020968;28;20563;-88
2021/01/11 11:59:06;;;;;;;17.70;12.97;;;2.00;68.30;;;;;;5018335;28;20676;-88
2021/01/11 12:01:39;;;;;;;15.97;13.13;;;1.60;69.20;;;;;;5018743;28;20178;-87
2021/01/11 12:04:05;;;;;;;16.07;13.03;;;1.70;68.00;;;;;;5020919;28;20174;-87
2021/01/11 12:06:39;;;;;;;15.77;12.43;;;1.80;67.10;;;;;;5019430;28;20217;-87
2021/01/11 12:09:05;;;;;;;15.17;12.73;;;1.70;66.20;;;;;;5019619;28;20201;-87
2021/01/11 12:11:41;;;;;;;18.20;13.23;;;1.70;67.20;;;;;;5019774;28;20178;-87
2021/01/11 12:14:07;;;;;;;16.70;13.57;;;1.80;66.70;;;;;;5019925;28;20257;-89
2021/01/11 12:16:32;;;;;;;15.90;12.70;;;2.00;66.70;;;;;;5023733;28;20228;-88
2021/01/11 12:18:58;;;;;;;14.77;11.97;;;2.10;64.80;;;;;;5019468;28;20198;-89
2021/01/11 12:21:31;;;;;;;17.60;12.67;;;1.80;66.20;;;;;;4985428;28;20190;-89
2021/01/11 12:23:57;;;;;;;16.80;12.80;;;1.80;65.40;;;;;;5021525;28;20193;-89
2021/01/11 12:26:22;;;;;;;14.80;12.40;;;2.00;63.70;;;;;;5022123;28;20231;-88
2021/01/11 12:28:48;;;;;;;18.43;14.13;;;2.10;64.30;;;;;;5002586;28;20201;-88
2021/01/11 12:31:14;;;;;;;16.00;12.97;;;2.30;63.60;;;;;;5019547;28;20174;-88
2021/01/11 12:33:39;;;;;;;17.50;13.23;;;2.40;65.00;;;;;;5017708;28;20595;-89
2021/01/11 12:36:05;;;;;;;14.00;12.10;;;2.20;64.20;;;;;;4998913;28;20185;-89